Time;durP1;ratioP1;P1;durP2;ratioP2;P2;SDS_P1;SDS_P2;PMS_P1;PMS_P2;Temp;Humidity;BMP_temperature;BMP_pressure;BME280_temperature;BME280_humidity;BME280_pressure;Samples;Min_cycle;Max_cycle;Signal;HPM_P1;HPM_P2
2023/09/29 00:01:57;;;;;;;7.85;2.50;;;18.60;78.40;;;;;;5055035;28;20021;-35
2023/09/29 00:04:22;;;;;;;6.43;2.45;;;18.60;78.50;;;;;;5054895;28;20056;-34
2023/09/29 00:06:48;;;;;;;8.27;2.58;;;18.60;78.50;;;;;;5054783;28;20025;-40
2023/09/29 00:09:16;;;;;;;8.52;2.97;;;18.60;78.60;;;;;;5054817;28;20090;-35
2023/09/29 00:11:41;;;;;;;9.70;3.15;;;18.60;78.70;;;;;;5055065;28;20381;-34
2023/09/29 00:14:07;;;;;;;8.82;2.75;;;18.60;78.80;;;;;;5053449;28;20024;-34
2023/09/29 00:16:32;;;;;;;9.70;3.28;;;18.50;78.80;;;;;;5054934;28;20511;-35
2023/09/29 00:18:58;;;;;;;9.05;3.20;;;18.50;78.80;;;;;;5054982;28;20096;-35
2023/09/29 00:21:24;;;;;;;11.43;3.10;;;18.50;78.90;;;;;;5055134;28;20033;-35
2023/09/29 00:23:49;;;;;;;7.32;3.60;;;18.50;79.00;;;;;;5054539;28;20025;-37
2023/09/29 00:26:15;;;;;;;10.82;3.42;;;18.50;79.00;;;;;;5054746;28;20052;-36
2023/09/29 00:28:40;;;;;;;9.23;3.13;;;18.50;79.00;;;;;;5054336;28;20061;-36
2023/09/29 00:31:06;;;;;;;5.47;2.67;;;18.50;79.00;;;;;;5054543;28;20083;-35
2023/09/29 00:33:32;;;;;;;7.88;3.00;;;18.50;79.10;;;;;;5054518;28;20321;-35
2023/09/29 00:36:01;;;;;;;10.35;3.00;;;18.50;79.10;;;;;;5054493;28;20021;-36
2023/09/29 00:38:26;;;;;;;6.65;2.83;;;18.50;79.10;;;;;;5054442;28;20527;-34
2023/09/29 00:40:52;;;;;;;10.13;3.35;;;18.50;79.10;;;;;;5054583;28;20112;-36
2023/09/29 00:43:18;;;;;;;8.50;3.50;;;18.50;79.20;;;;;;5054676;28;20480;-36
2023/09/29 00:45:47;;;;;;;9.43;2.90;;;18.50;79.20;;;;;;5054199;28;20029;-34
2023/09/29 00:48:14;;;;;;;5.80;2.78;;;18.50;79.30;;;;;;5054032;28;20025;-36
2023/09/29 00:50:41;;;;;;;7.18;3.28;;;18.50;79.30;;;;;;5054270;28;20025;-37
2023/09/29 00:53:13;;;;;;;8.25;2.97;;;18.50;79.30;;;;;;5054476;28;20503;-34
2023/09/29 00:55:42;;;;;;;7.22;2.90;;;18.50;79.50;;;;;;5054374;28;20358;-36
2023/09/29 00:58:08;;;;;;;8.63;3.00;;;18.50;79.40;;;;;;5054047;28;20484;-36
2023/09/29 01:00:40;;;;;;;9.18;3.05;;;18.50;79.50;;;;;;5052040;28;20020;-36
2023/09/29 01:03:10;;;;;;;8.90;2.97;;;18.50;79.50;;;;;;5052226;28;20093;-36
2023/09/29 01:05:42;;;;;;;7.78;2.80;;;18.50;79.60;;;;;;5053944;28;20036;-36
2023/09/29 01:08:09;;;;;;;12.15;3.47;;;18.50;79.70;;;;;;5053936;28;20107;-35
2023/09/29 01:10:36;;;;;;;7.82;3.03;;;18.50;79.70;;;;;;5054034;28;20028;-34
2023/09/29 01:13:03;;;;;;;10.43;3.58;;;18.50;79.70;;;;;;5053910;28;20025;-36
2023/09/29 01:15:28;;;;;;;10.00;3.03;;;18.40;79.80;;;;;;5054174;28;20037;-35
2023/09/29 01:17:54;;;;;;;9.20;3.05;;;18.40;79.80;;;;;;5053629;28;20489;-35
2023/09/29 01:20:30;;;;;;;6.20;2.85;;;18.50;79.90;;;;;;5053979;28;20029;-36
2023/09/29 01:22:57;;;;;;;7.05;2.67;;;18.50;79.90;;;;;;5052392;28;20051;-35
2023/09/29 01:25:23;;;;;;;7.93;2.92;;;18.50;80.00;;;;;;5053750;28;20074;-35
2023/09/29 01:27:49;;;;;;;6.30;2.60;;;18.50;80.00;;;;;;5053668;28;20113;-35
2023/09/29 01:30:18;;;;;;;6.22;2.75;;;18.50;80.00;;;;;;5053236;28;20140;-36
2023/09/29 01:32:48;;;;;;;8.15;3.35;;;18.50;80.00;;;;;;5053803;28;20110;-35
2023/09/29 01:35:17;;;;;;;6.15;3.00;;;18.50;80.10;;;;;;5053760;28;20078;-36
2023/09/29 01:37:47;;;;;;;7.75;3.10;;;18.50;80.10;;;;;;5053257;28;20029;-36
2023/09/29 01:40:14;;;;;;;8.35;3.30;;;18.50;80.10;;;;;;5052131;28;20032;-34
2023/09/29 01:42:40;;;;;;;7.35;3.15;;;18.50;80.20;;;;;;5053292;28;20032;-36
2023/09/29 01:45:14;;;;;;;9.85;3.67;;;18.50;80.20;;;;;;5053424;28;20067;-35
2023/09/29 01:47:41;;;;;;;10.88;3.58;;;18.50;80.30;;;;;;5052829;28;20025;-36
2023/09/29 01:50:07;;;;;;;10.25;3.72;;;18.50;80.30;;;;;;5053143;28;20055;-36
2023/09/29 01:52:33;;;;;;;10.13;3.70;;;18.50;80.30;;;;;;5053378;28;20053;-36
2023/09/29 01:55:00;;;;;;;8.57;3.80;;;18.50;80.40;;;;;;5053595;28;20055;-36
2023/09/29 01:57:26;;;;;;;7.90;3.67;;;18.50;80.40;;;;;;5052893;28;20037;-36
2023/09/29 01:59:52;;;;;;;10.65;4.22;;;18.50;80.40;;;;;;5053214;28;20412;-36
2023/09/29 02:02:17;;;;;;;8.20;4.10;;;18.50;80.40;;;;;;5051548;28;20025;-35
2023/09/29 02:04:43;;;;;;;7.25;3.35;;;18.50;80.50;;;;;;5052847;28;20033;-35
2023/09/29 02:07:09;;;;;;;6.97;3.63;;;18.50;80.40;;;;;;5052884;28;20020;-36
2023/09/29 02:09:34;;;;;;;7.30;3.42;;;18.50;80.40;;;;;;5052785;28;20036;-35
2023/09/29 02:12:01;;;;;;;7.50;3.65;;;18.50;80.50;;;;;;5052690;28;20469;-36
2023/09/29 02:14:27;;;;;;;8.52;3.85;;;18.50;80.50;;;;;;5052077;28;20106;-36
2023/09/29 02:16:53;;;;;;;7.72;3.40;;;18.50;80.60;;;;;;5052866;28;20357;-35
2023/09/29 02:19:19;;;;;;;10.95;3.72;;;18.50;80.60;;;;;;5051294;28;20025;-36
2023/09/29 02:21:45;;;;;;;8.27;3.78;;;18.50;80.60;;;;;;5052740;28;20136;-36
2023/09/29 02:24:11;;;;;;;8.05;3.95;;;18.50;80.60;;;;;;5052646;28;20052;-36
2023/09/29 02:26:38;;;;;;;8.18;3.80;;;18.50;80.70;;;;;;5052301;28;20033;-35
2023/09/29 02:29:04;;;;;;;7.32;3.75;;;18.50;80.70;;;;;;5052184;28;20049;-36
2023/09/29 02:31:30;;;;;;;7.40;3.38;;;18.50;80.80;;;;;;5052586;28;20025;-34
2023/09/29 02:33:57;;;;;;;7.43;3.83;;;18.50;80.80;;;;;;5051080;28;20048;-36
2023/09/29 02:36:22;;;;;;;10.73;3.85;;;18.60;80.90;;;;;;5052396;28;20033;-36
2023/09/29 02:38:48;;;;;;;7.32;3.75;;;18.60;80.90;;;;;;5052103;28;20029;-36
2023/09/29 02:41:14;;;;;;;8.93;3.63;;;18.50;81.50;;;;;;5052446;28;20578;-35
2023/09/29 02:43:39;;;;;;;6.75;3.72;;;18.60;81.00;;;;;;5052030;28;20119;-36
2023/09/29 02:46:12;;;;;;;7.63;3.40;;;18.50;81.00;;;;;;5051784;28;20028;-37
2023/09/29 02:48:37;;;;;;;9.13;3.83;;;18.50;81.00;;;;;;5050522;28;20032;-36
2023/09/29 02:51:03;;;;;;;9.35;3.65;;;18.50;81.00;;;;;;5051949;28;20086;-44
2023/09/29 02:53:28;;;;;;;7.13;3.53;;;18.50;81.20;;;;;;5051903;28;20395;-36
2023/09/29 02:55:54;;;;;;;7.07;3.72;;;18.50;81.20;;;;;;5051859;28;20039;-36
2023/09/29 02:58:20;;;;;;;3.90;3.15;;;18.50;81.20;;;;;;5050627;28;20033;-36
2023/09/29 03:00:46;;;;;;;6.57;3.05;;;18.50;81.30;;;;;;5052146;28;20033;-36
2023/09/29 03:03:12;;;;;;;5.43;3.83;;;18.50;81.40;;;;;;5052047;28;20032;-36
2023/09/29 03:05:43;;;;;;;9.13;3.88;;;18.40;81.40;;;;;;5051620;28;20392;-34
2023/09/29 03:08:08;;;;;;;5.97;4.05;;;18.40;81.50;;;;;;5051695;28;20045;-35
2023/09/29 03:10:34;;;;;;;7.75;3.25;;;18.40;81.50;;;;;;5051711;28;20421;-35
2023/09/29 03:13:00;;;;;;;7.10;3.45;;;18.40;81.60;;;;;;5051992;28;20025;-35
2023/09/29 03:15:26;;;;;;;7.85;3.60;;;18.40;81.60;;;;;;5052050;28;20070;-35
2023/09/29 03:17:55;;;;;;;8.90;3.85;;;18.40;81.80;;;;;;5051898;28;20033;-36
2023/09/29 03:20:21;;;;;;;5.80;3.53;;;18.30;81.70;;;;;;5051570;28;20028;-36
2023/09/29 03:22:48;;;;;;;8.30;3.70;;;18.30;81.80;;;;;;5051510;28;20127;-35
2023/09/29 03:25:18;;;;;;;7.38;3.63;;;18.30;81.80;;;;;;5051279;28;20033;-35
2023/09/29 03:27:44;;;;;;;5.68;3.85;;;18.30;81.80;;;;;;5051519;28;20108;-34
2023/09/29 03:30:11;;;;;;;6.38;3.75;;;18.30;81.80;;;;;;5051358;28;20470;-36
2023/09/29 03:32:37;;;;;;;7.82;3.83;;;18.30;81.80;;;;;;5051388;28;20036;-34
2023/09/29 03:35:05;;;;;;;6.57;3.80;;;18.40;81.80;;;;;;5051754;28;20078;-36
2023/09/29 03:37:35;;;;;;;4.90;3.28;;;18.40;81.80;;;;;;5051096;28;20052;-34
2023/09/29 03:40:03;;;;;;;5.78;3.42;;;18.40;81.80;;;;;;5051347;28;20036;-37
2023/09/29 03:42:29;;;;;;;6.10;3.50;;;18.40;81.80;;;;;;5051533;28;20029;-34
2023/09/29 03:44:54;;;;;;;8.57;3.70;;;18.40;81.80;;;;;;5051507;28;20032;-34
2023/09/29 03:47:20;;;;;;;7.20;3.63;;;18.40;81.80;;;;;;5050863;28;20033;-35
2023/09/29 03:49:46;;;;;;;6.45;3.33;;;18.40;81.80;;;;;;5051186;28;20037;-34
2023/09/29 03:52:12;;;;;;;6.50;3.17;;;18.40;81.80;;;;;;5051343;28;20396;-35
2023/09/29 03:54:38;;;;;;;5.38;3.05;;;18.40;81.80;;;;;;5050929;28;20320;-34
2023/09/29 03:57:04;;;;;;;8.10;3.67;;;18.40;81.80;;;;;;5051024;28;20087;-34
2023/09/29 03:59:30;;;;;;;4.95;3.08;;;18.40;81.80;;;;;;5051491;28;20064;-35
2023/09/29 04:01:55;;;;;;;5.53;3.25;;;18.40;81.80;;;;;;5051182;28;20071;-35
2023/09/29 04:04:21;;;;;;;5.28;3.10;;;18.40;81.80;;;;;;5051182;28;20388;-35
2023/09/29 04:06:47;;;;;;;8.52;3.17;;;18.40;81.80;;;;;;5051222;28;20033;-35
2023/09/29 04:09:12;;;;;;;5.10;3.00;;;18.40;81.80;;;;;;5051208;28;20033;-36
2023/09/29 04:11:40;;;;;;;5.97;3.08;;;18.40;81.80;;;;;;5051506;28;20048;-34
2023/09/29 04:14:06;;;;;;;7.85;3.58;;;18.30;81.80;;;;;;5051388;28;20029;-33
2023/09/29 04:16:31;;;;;;;5.65;2.80;;;18.40;81.80;;;;;;5050882;28;20469;-35
2023/09/29 04:18:57;;;;;;;7.10;3.58;;;18.40;81.80;;;;;;5051009;28;20040;-35
2023/09/29 04:21:22;;;;;;;7.22;3.33;;;18.40;81.80;;;;;;5051323;28;20052;-35
2023/09/29 04:23:48;;;;;;;5.22;3.08;;;18.40;81.80;;;;;;5050758;28;20029;-34
2023/09/29 04:26:19;;;;;;;5.38;3.42;;;18.40;81.80;;;;;;5050909;28;20063;-34
2023/09/29 04:28:45;;;;;;;7.22;3.33;;;18.40;81.90;;;;;;5050867;28;20033;-34
2023/09/29 04:31:11;;;;;;;4.88;2.70;;;18.40;81.90;;;;;;5049688;28;20036;-35
2023/09/29 04:33:37;;;;;;;5.93;2.80;;;18.40;82.00;;;;;;5050852;28;20035;-35
2023/09/29 04:36:03;;;;;;;6.45;3.13;;;18.40;82.00;;;;;;5051874;28;20111;-34
2023/09/29 04:38:29;;;;;;;4.10;2.97;;;18.40;82.00;;;;;;5053496;28;20556;-34
2023/09/29 04:40:54;;;;;;;4.28;3.00;;;18.30;82.00;;;;;;5054501;28;20056;-34
2023/09/29 04:43:20;;;;;;;5.68;3.08;;;18.40;82.00;;;;;;5054494;28;20515;-35
2023/09/29 04:45:45;;;;;;;5.68;2.80;;;18.40;82.00;;;;;;5054169;28;20037;-34
2023/09/29 04:48:11;;;;;;;4.00;2.88;;;18.40;82.00;;;;;;5054110;28;20021;-35
2023/09/29 04:50:37;;;;;;;5.82;3.08;;;18.40;82.00;;;;;;5054317;28;20472;-33
2023/09/29 04:53:02;;;;;;;6.47;3.28;;;18.40;82.10;;;;;;5054626;28;20029;-34
2023/09/29 04:55:28;;;;;;;3.92;2.80;;;18.40;82.10;;;;;;5053983;28;20079;-34
2023/09/29 04:57:54;;;;;;;6.93;3.35;;;18.40;82.10;;;;;;5054455;28;20044;-34
2023/09/29 05:00:21;;;;;;;5.43;3.15;;;18.40;82.10;;;;;;5053986;28;20488;-34
2023/09/29 05:02:47;;;;;;;4.25;2.88;;;18.30;82.10;;;;;;5054068;28;20094;-36
2023/09/29 05:05:13;;;;;;;5.55;3.08;;;18.30;82.10;;;;;;5054133;28;20071;-39
2023/09/29 05:07:38;;;;;;;5.10;3.00;;;18.30;82.10;;;;;;5054079;28;20048;-34
2023/09/29 05:10:04;;;;;;;3.70;2.85;;;18.30;82.10;;;;;;5054202;28;20528;-34
2023/09/29 05:12:30;;;;;;;5.40;2.75;;;18.30;82.20;;;;;;5053878;28;20082;-35
2023/09/29 05:14:57;;;;;;;3.90;2.92;;;18.30;82.30;;;;;;5053808;28;20120;-33
2023/09/29 05:17:22;;;;;;;4.07;2.80;;;18.40;82.30;;;;;;5054012;28;20029;-35
2023/09/29 05:19:48;;;;;;;5.45;3.00;;;18.40;82.30;;;;;;5052283;28;20124;-35
2023/09/29 05:22:14;;;;;;;4.00;2.65;;;18.40;82.30;;;;;;5053698;28;20469;-34
2023/09/29 05:24:39;;;;;;;4.22;2.45;;;18.40;82.40;;;;;;5053528;28;20025;-34
2023/09/29 05:27:05;;;;;;;3.90;2.80;;;18.40;82.40;;;;;;5053531;28;20435;-36
2023/09/29 05:29:31;;;;;;;3.88;2.70;;;18.40;82.50;;;;;;5053297;28;20045;-34
2023/09/29 05:31:56;;;;;;;3.42;2.58;;;18.40;82.60;;;;;;5053753;28;20031;-35
2023/09/29 05:34:22;;;;;;;3.67;2.28;;;18.40;82.50;;;;;;5053509;28;20017;-34
2023/09/29 05:36:48;;;;;;;2.90;2.55;;;18.40;82.60;;;;;;5053148;28;20047;-34
2023/09/29 05:39:14;;;;;;;3.88;2.30;;;18.40;82.60;;;;;;5053537;28;20029;-34
2023/09/29 05:41:40;;;;;;;3.70;2.47;;;18.50;82.70;;;;;;5053563;28;20025;-34
2023/09/29 05:44:06;;;;;;;2.67;2.47;;;18.50;82.70;;;;;;5053673;28;20491;-34
2023/09/29 05:46:32;;;;;;;3.20;2.47;;;18.50;82.80;;;;;;5052938;28;20151;-34
2023/09/29 05:48:57;;;;;;;3.05;2.35;;;18.50;82.80;;;;;;5052889;28;20037;-33
2023/09/29 05:51:23;;;;;;;3.97;2.05;;;18.50;82.80;;;;;;5053022;28;20067;-37
2023/09/29 05:53:48;;;;;;;4.55;2.15;;;18.50;82.80;;;;;;5051750;28;20028;-34
2023/09/29 05:56:15;;;;;;;3.67;2.20;;;18.50;82.90;;;;;;5052827;28;20525;-34
2023/09/29 05:58:41;;;;;;;3.05;2.30;;;18.60;83.00;;;;;;5053280;28;20205;-34
2023/09/29 06:01:11;;;;;;;2.88;1.95;;;18.60;83.00;;;;;;5052969;28;20075;-34
2023/09/29 06:03:37;;;;;;;2.92;1.95;;;18.60;82.90;;;;;;5053184;28;20488;-35
2023/09/29 06:06:04;;;;;;;4.43;2.33;;;18.60;82.90;;;;;;5053162;28;20024;-33
2023/09/29 06:08:29;;;;;;;3.97;2.40;;;18.70;83.00;;;;;;5052887;28;20029;-34
2023/09/29 06:10:56;;;;;;;4.78;2.20;;;18.70;83.00;;;;;;5053118;28;20023;-34
2023/09/29 06:13:21;;;;;;;3.25;2.20;;;18.80;83.10;;;;;;5053221;28;20037;-34
2023/09/29 06:15:47;;;;;;;3.05;1.90;;;18.80;83.00;;;;;;5051382;28;20068;-33
2023/09/29 06:18:12;;;;;;;2.97;2.35;;;18.80;83.00;;;;;;5051740;28;20025;-34
2023/09/29 06:20:38;;;;;;;4.60;2.60;;;18.90;83.00;;;;;;5051741;28;20029;-34
2023/09/29 06:23:04;;;;;;;3.38;2.20;;;19.00;82.90;;;;;;5052708;28;20412;-34
2023/09/29 06:25:30;;;;;;;2.60;2.10;;;19.00;82.80;;;;;;5051034;28;20509;-34
2023/09/29 06:27:56;;;;;;;4.00;2.65;;;19.10;82.90;;;;;;5052260;28;20048;-34
2023/09/29 06:30:22;;;;;;;2.50;2.30;;;19.10;82.80;;;;;;5052404;28;20041;-35
2023/09/29 06:32:48;;;;;;;2.58;2.17;;;19.20;82.80;;;;;;5052716;28;20021;-35
2023/09/29 06:35:14;;;;;;;2.53;2.08;;;19.20;82.70;;;;;;5052717;28;20055;-36
2023/09/29 06:37:40;;;;;;;5.20;2.10;;;19.20;82.60;;;;;;5052073;28;20025;-35
2023/09/29 06:40:10;;;;;;;3.80;2.33;;;19.30;82.60;;;;;;5052370;28;20044;-33
2023/09/29 06:42:38;;;;;;;3.22;2.05;;;19.30;82.60;;;;;;5052378;28;20032;-34
2023/09/29 06:45:07;;;;;;;4.85;2.33;;;19.30;82.60;;;;;;5051996;28;20059;-34
2023/09/29 06:47:33;;;;;;;4.40;2.30;;;19.40;82.70;;;;;;5052063;28;20050;-34
2023/09/29 06:49:59;;;;;;;5.28;2.30;;;19.40;82.60;;;;;;5052146;28;20499;-38
2023/09/29 06:52:25;;;;;;;4.43;2.47;;;19.40;82.60;;;;;;5052195;28;20338;-34
2023/09/29 06:54:51;;;;;;;4.38;2.50;;;19.40;82.60;;;;;;5052055;28;20100;-35
2023/09/29 06:57:16;;;;;;;3.28;2.17;;;19.40;82.60;;;;;;5051879;28;20029;-35
2023/09/29 06:59:42;;;;;;;4.03;1.85;;;19.40;82.60;;;;;;5051596;28;20064;-38
2023/09/29 07:02:08;;;;;;;2.05;1.90;;;19.50;82.60;;;;;;5051793;28;20065;-33
2023/09/29 07:04:33;;;;;;;4.57;2.20;;;19.50;82.60;;;;;;5052118;28;20017;-36
2023/09/29 07:06:59;;;;;;;4.13;2.03;;;19.50;82.50;;;;;;5051936;28;20525;-34
2023/09/29 07:09:26;;;;;;;2.05;1.70;;;19.60;82.50;;;;;;5052057;28;20376;-35
2023/09/29 07:11:51;;;;;;;2.63;2.13;;;19.60;82.50;;;;;;5050279;28;20025;-35
2023/09/29 07:14:17;;;;;;;3.97;2.30;;;19.70;82.50;;;;;;5051685;28;20531;-34
2023/09/29 07:16:43;;;;;;;2.47;1.77;;;19.80;82.50;;;;;;5051426;28;20124;-35
2023/09/29 07:19:12;;;;;;;3.63;2.10;;;19.70;82.30;;;;;;5051880;28;20397;-35
2023/09/29 07:21:38;;;;;;;5.43;1.98;;;19.80;82.30;;;;;;5051773;28;20100;-35
2023/09/29 07:24:05;;;;;;;2.45;1.85;;;19.90;82.20;;;;;;5051764;28;20036;-35
2023/09/29 07:26:31;;;;;;;2.22;1.80;;;19.90;82.20;;;;;;5051401;28;20021;-35
2023/09/29 07:29:01;;;;;;;3.13;1.73;;;20.00;82.10;;;;;;5051274;28;20405;-36
2023/09/29 07:31:36;;;;;;;2.95;1.80;;;20.10;82.00;;;;;;5051572;28;20028;-35
2023/09/29 07:34:02;;;;;;;4.57;2.08;;;20.10;81.90;;;;;;5051705;28;20021;-36
2023/09/29 07:36:30;;;;;;;2.53;1.92;;;20.20;81.80;;;;;;5051149;28;20021;-33
2023/09/29 07:38:56;;;;;;;2.67;1.90;;;20.20;81.70;;;;;;5051565;28;20477;-34
2023/09/29 07:41:21;;;;;;;2.67;1.65;;;20.30;81.60;;;;;;5049996;28;20028;-35
2023/09/29 07:43:47;;;;;;;3.72;3.25;;;20.40;81.50;;;;;;5051389;28;20017;-33
2023/09/29 07:46:13;;;;;;;4.60;2.70;;;20.40;81.40;;;;;;5051727;28;20021;-35
2023/09/29 07:48:38;;;;;;;3.10;2.00;;;20.40;81.40;;;;;;5051149;28;20116;-35
2023/09/29 07:51:04;;;;;;;3.88;2.20;;;20.40;82.00;;;;;;5051399;28;20021;-35
2023/09/29 07:53:30;;;;;;;3.05;2.00;;;20.40;81.30;;;;;;5050552;28;20508;-35
2023/09/29 07:55:55;;;;;;;2.63;1.88;;;20.50;81.40;;;;;;5049887;28;20035;-35
2023/09/29 07:58:21;;;;;;;4.25;2.05;;;20.50;81.30;;;;;;5051086;28;20025;-35
2023/09/29 08:00:47;;;;;;;2.42;1.90;;;20.50;81.30;;;;;;5051184;28;20078;-35
2023/09/29 08:03:12;;;;;;;2.58;1.65;;;20.50;81.20;;;;;;5051507;28;20082;-35
2023/09/29 08:05:38;;;;;;;3.67;1.70;;;20.60;81.20;;;;;;5051349;28;20098;-35
2023/09/29 08:08:05;;;;;;;2.95;1.92;;;20.60;81.10;;;;;;5051095;28;20358;-36
2023/09/29 08:10:30;;;;;;;2.92;1.90;;;20.70;81.00;;;;;;5051313;28;20033;-35
2023/09/29 08:12:56;;;;;;;13.50;9.07;;;20.80;80.90;;;;;;5054890;28;20096;-36
2023/09/29 08:15:21;;;;;;;9.23;5.28;;;20.90;80.80;;;;;;5054884;28;20017;-35
2023/09/29 08:17:47;;;;;;;5.07;3.85;;;20.90;80.70;;;;;;5054483;28;20521;-34
2023/09/29 08:20:14;;;;;;;5.22;3.20;;;21.00;80.60;;;;;;5054652;28;20469;-35
2023/09/29 08:22:40;;;;;;;2.75;2.20;;;21.00;80.60;;;;;;5054741;28;20021;-35
2023/09/29 08:25:08;;;;;;;3.80;3.08;;;21.00;80.50;;;;;;5055063;28;20029;-35
2023/09/29 08:27:35;;;;;;;3.67;2.63;;;21.10;80.50;;;;;;5054709;28;20075;-36
2023/09/29 08:30:01;;;;;;;6.20;2.47;;;21.10;80.40;;;;;;5054379;28;20045;-34
2023/09/29 08:32:27;;;;;;;3.83;2.10;;;21.10;80.30;;;;;;5054972;28;20497;-34
2023/09/29 08:34:52;;;;;;;3.55;2.08;;;21.20;80.30;;;;;;5053324;28;20021;-36
2023/09/29 08:37:18;;;;;;;2.55;1.80;;;21.20;80.20;;;;;;5054443;28;20028;-35
2023/09/29 08:39:44;;;;;;;3.88;1.60;;;21.30;80.10;;;;;;5054621;28;20017;-36
2023/09/29 08:42:33;;;;;;;2.15;1.60;;;21.30;79.90;;;;;;5054458;28;20362;-34
2023/09/29 08:45:00;;;;;;;2.35;1.90;;;21.40;79.70;;;;;;5054515;28;20522;-35
2023/09/29 08:47:29;;;;;;;4.10;1.80;;;21.50;79.60;;;;;;5054355;28;20036;-35
2023/09/29 08:49:57;;;;;;;2.45;1.60;;;21.60;79.60;;;;;;5054418;28;20127;-35
2023/09/29 08:52:25;;;;;;;3.67;1.90;;;21.60;79.40;;;;;;5054530;28;20048;-36
2023/09/29 08:54:51;;;;;;;2.38;1.80;;;21.60;79.30;;;;;;5054116;28;20051;-35
2023/09/29 08:57:17;;;;;;;3.95;1.98;;;21.70;79.20;;;;;;5054222;28;20025;-35
2023/09/29 08:59:44;;;;;;;3.85;1.60;;;21.70;79.10;;;;;;5054202;28;20021;-36
2023/09/29 09:02:10;;;;;;;3.88;1.70;;;21.80;79.10;;;;;;5054141;28;20366;-35
2023/09/29 09:04:36;;;;;;;2.83;1.65;;;21.80;78.90;;;;;;5052653;28;20040;-35
2023/09/29 09:07:02;;;;;;;2.70;1.92;;;21.90;78.90;;;;;;5054114;28;20454;-34
2023/09/29 09:09:28;;;;;;;3.15;2.15;;;22.00;78.80;;;;;;5053918;28;20112;-33
2023/09/29 09:11:54;;;;;;;2.72;1.98;;;22.00;78.60;;;;;;5054166;28;20441;-35
2023/09/29 09:14:19;;;;;;;2.35;1.90;;;22.00;78.50;;;;;;5053912;28;20024;-35
2023/09/29 09:16:45;;;;;;;2.22;1.73;;;22.10;78.40;;;;;;5053943;28;20360;-35
2023/09/29 09:19:13;;;;;;;3.65;1.50;;;22.10;78.30;;;;;;5053966;28;20104;-34
2023/09/29 09:21:40;;;;;;;3.80;1.90;;;22.20;78.30;;;;;;5053783;28;20048;-35
2023/09/29 09:24:18;;;;;;;4.60;2.08;;;22.20;78.10;;;;;;5053733;28;20029;-35
2023/09/29 09:26:44;;;;;;;4.60;1.85;;;22.20;77.90;;;;;;5053751;28;20529;-36
2023/09/29 09:29:10;;;;;;;3.90;2.00;;;22.20;77.70;;;;;;5053518;28;20124;-36
2023/09/29 09:31:46;;;;;;;7.13;2.15;;;22.30;77.60;;;;;;5053880;28;20683;-36
2023/09/29 09:34:13;;;;;;;4.45;1.98;;;22.40;77.50;;;;;;5053488;28;20027;-35
2023/09/29 09:36:52;;;;;;;3.38;2.28;;;22.40;77.50;;;;;;5053268;28;20047;-35
2023/09/29 09:39:22;;;;;;;4.45;2.17;;;22.30;77.30;;;;;;5053709;28;20488;-36
2023/09/29 09:41:53;;;;;;;2.95;1.80;;;22.30;77.30;;;;;;5035889;28;20017;-35
2023/09/29 09:44:20;;;;;;;4.63;1.92;;;22.30;77.30;;;;;;5051878;28;20033;-35
2023/09/29 09:47:00;;;;;;;3.20;1.83;;;22.30;77.40;;;;;;5052938;28;20464;-38
2023/09/29 09:49:36;;;;;;;3.58;2.00;;;22.40;77.20;;;;;;5052732;28;20034;-36
2023/09/29 09:52:07;;;;;;;4.20;2.30;;;22.50;77.00;;;;;;5051803;28;20035;-36
2023/09/29 09:54:40;;;;;;;5.57;2.15;;;22.60;76.70;;;;;;5053231;28;20075;-45
2023/09/29 09:57:10;;;;;;;5.57;1.80;;;22.60;76.60;;;;;;5053309;28;20465;-35
2023/09/29 09:59:36;;;;;;;5.20;2.15;;;22.60;76.70;;;;;;5053098;28;20025;-35
2023/09/29 10:02:06;;;;;;;6.55;2.20;;;22.50;76.70;;;;;;5052979;28;20382;-35
2023/09/29 10:04:36;;;;;;;4.35;1.95;;;22.50;76.80;;;;;;5052840;28;20021;-34
2023/09/29 10:07:04;;;;;;;4.32;2.05;;;22.60;76.80;;;;;;5052771;28;20029;-35
2023/09/29 10:09:49;;;;;;;4.35;2.38;;;22.60;76.60;;;;;;5052718;28;20044;-35
2023/09/29 10:12:30;;;;;;;4.93;2.60;;;22.70;76.30;;;;;;5053147;28;20021;-35
2023/09/29 10:14:56;;;;;;;4.15;2.45;;;22.70;76.00;;;;;;5053100;28;20528;-35
2023/09/29 10:17:22;;;;;;;3.60;2.35;;;22.70;76.00;;;;;;5052389;28;20056;-35
2023/09/29 10:19:50;;;;;;;5.28;2.40;;;22.70;75.90;;;;;;5052882;28;20122;-35
2023/09/29 10:22:28;;;;;;;4.20;2.30;;;22.70;75.80;;;;;;5052843;28;20060;-33
2023/09/29 10:24:57;;;;;;;3.03;2.17;;;22.70;75.80;;;;;;5052460;28;20025;-39
2023/09/29 10:27:31;;;;;;;5.20;2.10;;;22.60;75.80;;;;;;5052393;28;20068;-36
2023/09/29 10:30:18;;;;;;;3.08;2.10;;;22.60;75.90;;;;;;5052418;28;20045;-34
2023/09/29 10:32:50;;;;;;;5.60;2.00;;;22.60;76.00;;;;;;5052576;28;20017;-36
2023/09/29 10:35:20;;;;;;;3.45;2.08;;;22.50;76.10;;;;;;5051964;28;20581;-36
2023/09/29 10:37:54;;;;;;;4.38;2.17;;;22.50;76.20;;;;;;5050966;28;20025;-36
2023/09/29 10:40:21;;;;;;;4.95;2.35;;;22.40;76.40;;;;;;5052355;28;20025;-35
2023/09/29 10:42:48;;;;;;;5.43;2.15;;;22.40;76.40;;;;;;5052260;28;20029;-36
2023/09/29 10:45:31;;;;;;;3.75;1.80;;;22.50;76.40;;;;;;5052264;28;20053;-36
2023/09/29 10:48:01;;;;;;;5.57;2.22;;;22.50;76.30;;;;;;5051971;28;20071;-37
2023/09/29 10:50:27;;;;;;;3.97;1.98;;;22.50;76.40;;;;;;5052305;28;20505;-36
2023/09/29 10:52:53;;;;;;;2.83;1.70;;;22.50;76.50;;;;;;5052504;28;20021;-37
2023/09/29 10:55:19;;;;;;;2.88;1.98;;;22.40;76.60;;;;;;5051884;28;20032;-36
2023/09/29 10:57:45;;;;;;;3.08;1.75;;;22.40;76.90;;;;;;5051817;28;20433;-38
2023/09/29 11:00:11;;;;;;;3.55;1.83;;;22.50;77.00;;;;;;5051850;28;20029;-34
2023/09/29 11:02:37;;;;;;;2.33;1.50;;;22.50;77.00;;;;;;5051802;28;20108;-36
2023/09/29 11:05:06;;;;;;;2.88;1.70;;;22.40;77.20;;;;;;5051718;28;20033;-36
2023/09/29 11:07:48;;;;;;;3.72;1.70;;;22.40;77.30;;;;;;5052072;28;20079;-35
2023/09/29 11:10:14;;;;;;;4.45;2.22;;;22.40;77.30;;;;;;5051822;28;20040;-36
2023/09/29 11:12:44;;;;;;;3.72;2.15;;;22.30;77.60;;;;;;5051937;28;20461;-35
2023/09/29 11:15:12;;;;;;;3.83;1.98;;;22.20;77.90;;;;;;5051997;28;20051;-36
2023/09/29 11:17:56;;;;;;;2.78;2.30;;;22.10;78.10;;;;;;5051805;28;20055;-43
2023/09/29 11:20:27;;;;;;;3.40;1.73;;;22.00;78.30;;;;;;5051637;28;20238;-37
2023/09/29 11:23:06;;;;;;;3.20;1.83;;;21.90;78.50;;;;;;5051531;28;20024;-36
2023/09/29 11:25:32;;;;;;;2.38;1.73;;;21.90;78.60;;;;;;5051465;28;20021;-35
2023/09/29 11:27:57;;;;;;;3.25;2.10;;;21.90;78.60;;;;;;5051383;28;20430;-38
2023/09/29 11:30:24;;;;;;;3.28;1.75;;;21.80;78.80;;;;;;5051426;28;20029;-36
2023/09/29 11:32:53;;;;;;;4.28;1.65;;;21.90;78.80;;;;;;5051800;28;20025;-36
2023/09/29 11:35:21;;;;;;;1.95;1.55;;;21.90;78.90;;;;;;5051752;28;20376;-41
2023/09/29 11:37:47;;;;;;;3.20;1.63;;;22.00;79.60;;;;;;5050251;28;20401;-37
2023/09/29 11:40:13;;;;;;;1.95;1.75;;;22.00;79.00;;;;;;5051327;28;20017;-36
2023/09/29 11:42:40;;;;;;;2.67;1.80;;;22.00;79.20;;;;;;5051546;28;20473;-36
2023/09/29 11:45:08;;;;;;;3.28;2.00;;;21.90;79.30;;;;;;5052357;28;20051;-35
2023/09/29 11:47:41;;;;;;;4.80;2.30;;;21.90;79.50;;;;;;5055196;28;20033;-36
2023/09/29 11:50:10;;;;;;;;;;;21.90;80.00;;;;;;5055761;28;20060;-41
2023/09/29 11:52:39;;;;;;;4.20;1.95;;;21.80;80.00;;;;;;5055647;28;19971;-40
2023/09/29 11:55:11;;;;;;;5.00;2.42;;;21.80;80.00;;;;;;5055442;28;20428;-43
2023/09/29 11:57:40;;;;;;;1.80;1.70;;;21.90;80.20;;;;;;5055492;28;20094;-40
2023/09/29 12:00:08;;;;;;;3.15;1.90;;;22.00;80.20;;;;;;5055527;28;20168;-41
2023/09/29 12:02:35;;;;;;;1.92;1.63;;;22.00;80.10;;;;;;5055293;28;20025;-34
2023/09/29 12:05:00;;;;;;;2.85;1.77;;;22.10;80.10;;;;;;5055254;28;20362;-38
2023/09/29 12:07:27;;;;;;;2.88;1.80;;;22.10;80.10;;;;;;5054964;28;20033;-35
2023/09/29 12:09:53;;;;;;;3.85;1.67;;;22.10;80.30;;;;;;5054891;28;20021;-37
2023/09/29 12:12:18;;;;;;;2.25;2.05;;;22.00;80.60;;;;;;5054968;28;20104;-42
2023/09/29 12:14:44;;;;;;;5.18;2.30;;;21.90;81.00;;;;;;5054856;28;20121;-35
2023/09/29 12:17:10;;;;;;;3.00;2.10;;;21.80;81.30;;;;;;5054922;28;20032;-44
2023/09/29 12:19:35;;;;;;;3.42;2.10;;;21.60;81.70;;;;;;5054788;28;20028;-46
2023/09/29 12:22:01;;;;;;;3.03;2.30;;;21.60;82.10;;;;;;5054810;28;20029;-32
2023/09/29 12:24:26;;;;;;;3.08;2.05;;;21.50;82.40;;;;;;5054904;28;20021;-37
2023/09/29 12:26:52;;;;;;;2.58;1.90;;;21.50;82.50;;;;;;5054865;28;20021;-34
2023/09/29 12:29:18;;;;;;;4.38;2.20;;;21.50;82.60;;;;;;5054521;28;20097;-35
2023/09/29 12:31:43;;;;;;;3.47;2.15;;;21.50;83.10;;;;;;5054576;28;20052;-38
2023/09/29 12:34:09;;;;;;;2.92;2.20;;;21.40;83.30;;;;;;5054455;28;20544;-39
2023/09/29 12:36:35;;;;;;;3.10;1.88;;;21.30;84.30;;;;;;5053016;28;20096;-36
2023/09/29 12:39:03;;;;;;;3.35;2.10;;;21.30;84.20;;;;;;5054779;28;20496;-35
2023/09/29 12:41:29;;;;;;;1.88;1.60;;;21.20;84.60;;;;;;5054726;28;20029;-39
2023/09/29 12:43:54;;;;;;;2.53;1.40;;;21.20;84.70;;;;;;5054321;28;20437;-36
2023/09/29 12:46:21;;;;;;;1.10;1.00;;;21.20;84.80;;;;;;5054137;28;20381;-36